Las Vegas, Nevada
Traffic Map
Current Weather Conditions
Las Vegas, Nevada
Clear
Clear
70°
Feels Like: 70°
Wind Chill: 70° Ceiling: Unl
Heat Index: 70° Visibility: 10mi
Dew Point: 32° Wind: 8mph
Humidity: 25% Direction: 210° (SSW)
Pressure: 29.92in Gusts: 0mph
Raw Report DataKLAS 200856Z 21007KT 10SM CLR 21/00 A2992 RMK AO2 SLP112 T02110000 52004
Traffic Incident Summary
Active as of:
Severity:
Category:
InformationThere was an issue retrieving the traffic information for this location. Please try a different location or try again shortly.
Advertisements
At Last! Intellicast now available for iPhone and Android